createdAt,value
2022-12-04T00:00:32.593Z,35.56
2022-12-04T00:03:03.171Z,35.72
2022-12-04T00:05:33.756Z,35.62
2022-12-04T00:08:04.102Z,35.64
2022-12-04T00:10:36.830Z,35.73
2022-12-04T00:13:07.278Z,35.65
2022-12-04T00:15:38.026Z,35.66
2022-12-04T00:18:08.428Z,35.78
2022-12-04T00:20:43.311Z,35.69
2022-12-04T00:23:13.322Z,35.59
2022-12-04T00:25:49.008Z,35.68
2022-12-04T00:28:20.520Z,35.67
2022-12-04T00:30:51.024Z,35.54
2022-12-04T00:33:21.092Z,35.71
2022-12-04T00:35:51.178Z,35.81
2022-12-04T00:38:21.511Z,35.63
2022-12-04T00:40:55.641Z,35.69
2022-12-04T00:43:26.868Z,35.69
2022-12-04T00:45:57.909Z,35.67
2022-12-04T00:48:28.725Z,35.81
2022-12-04T00:50:59.465Z,35.61
2022-12-04T00:53:30.276Z,35.77
2022-12-04T00:56:06.804Z,35.94
2022-12-04T00:58:37.572Z,35.92
2022-12-04T01:01:11.494Z,35.76
2022-12-04T01:03:42.266Z,36.11
2022-12-04T01:06:23.118Z,35.86
2022-12-04T01:08:55.904Z,35.66
2022-12-04T01:11:29.773Z,35.85
2022-12-04T01:14:01.031Z,36.16
2022-12-04T01:16:35.077Z,36.03
2022-12-04T01:19:07.992Z,35.84
2022-12-04T01:21:39.811Z,35.96
2022-12-04T01:24:11.489Z,35.87
2022-12-04T01:26:43.977Z,36.12
2022-12-04T01:29:14.571Z,35.81
2022-12-04T01:31:44.751Z,35.78
2022-12-04T01:34:15.338Z,35.89
2022-12-04T01:36:45.361Z,35.95
2022-12-04T01:39:15.355Z,35.80
2022-12-04T01:41:47.512Z,35.78
2022-12-04T01:44:21.557Z,36.19
2022-12-04T01:46:56.568Z,35.96
2022-12-04T01:49:35.640Z,35.83
2022-12-04T01:52:12.396Z,35.85
2022-12-04T01:54:49.127Z,35.77
2022-12-04T01:57:23.348Z,36.03
2022-12-04T01:59:59.747Z,36.17
2022-12-04T02:02:36.995Z,35.84
2022-12-04T02:05:10.782Z,35.84
2022-12-04T02:07:43.914Z,35.96
2022-12-04T02:10:15.183Z,35.81
2022-12-04T02:13:04.077Z,35.71
2022-12-04T02:15:47.436Z,35.84
2022-12-04T02:18:32.929Z,35.76
2022-12-04T02:21:12.708Z,35.63
2022-12-04T02:24:34.797Z,35.86
2022-12-04T02:27:10.874Z,35.86
2022-12-04T02:29:52.483Z,35.92
2022-12-04T02:32:30.217Z,36.12
2022-12-04T02:35:06.350Z,35.88
2022-12-04T02:37:43.231Z,35.98
2022-12-04T02:40:23.474Z,36.01
2022-12-04T02:43:02.676Z,35.82
2022-12-04T02:45:43.547Z,35.64
2022-12-04T02:48:22.076Z,35.65
2022-12-04T02:50:58.648Z,36.18
2022-12-04T02:53:35.083Z,36.00
2022-12-04T02:56:12.336Z,35.76
2022-12-04T02:58:49.660Z,35.85
2022-12-04T03:01:28.842Z,35.86
2022-12-04T03:04:03.229Z,36.01
2022-12-04T03:06:39.124Z,35.76
2022-12-04T03:09:16.546Z,35.75
2022-12-04T03:11:55.191Z,35.77
2022-12-04T03:14:33.416Z,35.65
2022-12-04T03:17:12.470Z,36.00
2022-12-04T03:19:49.606Z,36.10
2022-12-04T03:22:24.487Z,36.00
2022-12-04T03:24:57.777Z,35.86
2022-12-04T03:27:37.705Z,35.94
2022-12-04T03:30:11.647Z,35.97
2022-12-04T03:32:52.010Z,36.07
2022-12-04T03:35:29.137Z,35.87
2022-12-04T03:38:06.663Z,35.91
2022-12-04T03:40:44.572Z,36.12
2022-12-04T03:43:22.891Z,35.95
2022-12-04T03:46:00.566Z,35.65
2022-12-04T03:48:43.339Z,36.12
2022-12-04T03:51:24.892Z,36.04
2022-12-04T03:54:04.488Z,35.94
2022-12-04T03:56:41.428Z,36.11
2022-12-04T03:59:18.717Z,36.23
2022-12-04T04:01:51.469Z,35.85
2022-12-04T04:04:32.406Z,35.95
2022-12-04T04:07:12.789Z,35.80
2022-12-04T04:09:50.512Z,36.15
2022-12-04T04:12:27.872Z,35.76
2022-12-04T04:15:22.417Z,36.21
2022-12-04T04:18:11.143Z,36.06
2022-12-04T04:21:06.592Z,35.96
2022-12-04T04:24:00.242Z,36.11
2022-12-04T04:26:38.763Z,35.87
2022-12-04T04:29:08.636Z,35.95
2022-12-04T04:31:46.766Z,36.06
2022-12-04T04:34:27.561Z,35.92
2022-12-04T04:37:11.195Z,35.97
2022-12-04T04:39:47.780Z,35.90
2022-12-04T04:42:26.801Z,36.08
2022-12-04T04:45:07.477Z,36.28
2022-12-04T04:47:46.071Z,36.18
2022-12-04T04:50:19.784Z,35.81
2022-12-04T04:52:58.629Z,36.05
2022-12-04T04:55:29.324Z,36.16
2022-12-04T04:58:10.933Z,36.17
2022-12-04T05:00:43.097Z,35.81
2022-12-04T05:03:13.711Z,35.89
2022-12-04T05:05:44.221Z,36.08
2022-12-04T05:08:16.520Z,36.28
2022-12-04T05:10:47.084Z,36.33
2022-12-04T05:13:18.370Z,36.51
2022-12-04T05:15:58.906Z,36.01
2022-12-04T05:18:29.912Z,36.56
2022-12-04T05:20:58.764Z,36.08
2022-12-04T05:23:31.132Z,36.33
2022-12-04T05:26:05.857Z,36.49
2022-12-04T05:28:36.433Z,36.77
2022-12-04T05:31:07.306Z,36.48
2022-12-04T05:33:37.835Z,36.35
2022-12-04T05:36:11.729Z,36.75
2022-12-04T05:38:44.549Z,36.56
2022-12-04T05:41:14.229Z,36.49
2022-12-04T05:43:44.633Z,36.68
2022-12-04T05:46:14.613Z,36.71
2022-12-04T05:48:44.538Z,36.73
2022-12-04T05:51:14.653Z,36.57
2022-12-04T05:53:47.607Z,36.73
2022-12-04T05:56:17.750Z,36.77
2022-12-04T05:58:48.383Z,37.06
2022-12-04T06:01:22.963Z,37.03
2022-12-04T06:03:53.783Z,37.19
2022-12-04T06:06:28.082Z,37.23
2022-12-04T06:09:02.543Z,37.25
2022-12-04T06:11:35.608Z,37.85
2022-12-04T06:14:07.838Z,37.66
2022-12-04T06:16:41.363Z,37.69
2022-12-04T06:19:18.018Z,37.80
2022-12-04T06:21:50.247Z,37.88
2022-12-04T06:24:25.114Z,37.88
2022-12-04T06:29:50.775Z,37.89
2022-12-04T06:32:22.032Z,37.85
2022-12-04T06:34:54.635Z,37.61
2022-12-04T06:37:27.993Z,37.59
2022-12-04T06:39:59.660Z,37.49
2022-12-04T06:42:29.869Z,37.37
2022-12-04T06:45:00.274Z,37.63
2022-12-04T06:47:30.757Z,37.53
2022-12-04T06:50:01.113Z,37.39
2022-12-04T06:52:31.411Z,37.51
2022-12-04T06:55:03.144Z,36.99
2022-12-04T06:57:33.051Z,37.34
2022-12-04T07:00:03.905Z,36.92
2022-12-04T07:02:34.358Z,36.62
2022-12-04T07:05:04.414Z,36.76
2022-12-04T07:07:34.686Z,36.36
2022-12-04T07:10:07.547Z,36.49
2022-12-04T07:12:37.559Z,35.88
2022-12-04T07:15:09.055Z,36.36
2022-12-04T07:17:39.246Z,35.87
2022-12-04T07:20:11.665Z,36.33
2022-12-04T07:22:42.416Z,35.85
2022-12-04T07:25:15.700Z,36.06
2022-12-04T07:27:46.060Z,35.42
2022-12-04T07:30:17.682Z,35.17
2022-12-04T07:32:48.075Z,35.12
2022-12-04T07:35:18.182Z,34.98
2022-12-04T07:37:49.023Z,34.73
2022-12-04T07:40:21.633Z,35.01
2022-12-04T07:42:51.843Z,34.92
2022-12-04T07:45:22.773Z,34.76
2022-12-04T07:47:52.985Z,35.08
2022-12-04T07:50:23.533Z,34.39
2022-12-04T07:52:53.595Z,34.61
2022-12-04T07:55:25.846Z,34.42
2022-12-04T07:57:55.769Z,34.35
2022-12-04T08:00:26.609Z,34.42
2022-12-04T08:02:57.148Z,34.79
2022-12-04T08:05:27.736Z,34.98
2022-12-04T08:07:58.385Z,34.40
2022-12-04T08:10:29.943Z,34.72
2022-12-04T08:13:00.376Z,34.34
2022-12-04T08:15:30.407Z,34.20
2022-12-04T08:18:01.100Z,33.92
2022-12-04T08:20:31.283Z,34.31
2022-12-04T08:23:01.787Z,33.81
2022-12-04T08:25:34.206Z,33.55
2022-12-04T08:28:04.162Z,33.13
2022-12-04T08:30:35.810Z,32.57
2022-12-04T08:33:06.425Z,32.49
2022-12-04T08:35:37.570Z,31.82
2022-12-04T08:38:08.522Z,31.73
2022-12-04T08:40:41.429Z,30.56
2022-12-04T08:43:11.854Z,30.27
2022-12-04T08:45:42.078Z,30.16
2022-12-04T08:48:12.466Z,29.57
2022-12-04T08:50:48.115Z,29.61
2022-12-04T08:53:18.722Z,29.68
2022-12-04T08:55:50.934Z,29.29
2022-12-04T08:58:22.300Z,29.45
2022-12-04T09:00:52.938Z,29.45
2022-12-04T09:03:30.553Z,29.34
2022-12-04T09:06:04.254Z,28.98
2022-12-04T09:08:35.727Z,29.16
2022-12-04T09:11:11.355Z,29.63
2022-12-04T09:13:42.669Z,29.03
2022-12-04T09:16:16.650Z,29.58
2022-12-04T09:18:47.750Z,29.86
2022-12-04T09:21:21.476Z,29.53
2022-12-04T09:23:52.109Z,30.05
2022-12-04T09:26:27.562Z,30.04
2022-12-04T09:29:00.482Z,30.37
2022-12-04T09:31:31.581Z,29.67
2022-12-04T09:34:02.086Z,30.09
2022-12-04T09:36:34.898Z,29.50
2022-12-04T09:39:05.465Z,30.07
2022-12-04T09:42:19.093Z,29.45
2022-12-04T09:44:55.875Z,29.29
2022-12-04T09:47:32.422Z,29.61
2022-12-04T09:50:12.447Z,29.43
2022-12-04T09:52:56.990Z,29.63
2022-12-04T09:55:31.458Z,29.45
2022-12-04T09:58:08.863Z,29.22
2022-12-04T10:00:44.439Z,29.58
2022-12-04T10:03:23.301Z,29.51
2022-12-04T10:06:10.001Z,29.61
2022-12-04T10:08:44.362Z,29.74
2022-12-04T10:11:22.159Z,29.63
2022-12-04T10:14:31.717Z,29.14
2022-12-04T10:17:33.009Z,29.86
2022-12-04T10:20:24.803Z,29.55
2022-12-04T10:23:14.693Z,29.86
2022-12-04T10:25:46.661Z,29.52
2022-12-04T10:28:27.937Z,29.69
2022-12-04T10:31:04.596Z,29.82
2022-12-04T10:33:43.929Z,30.09
2022-12-04T10:36:18.274Z,29.67
2022-12-04T10:38:55.700Z,29.91
2022-12-04T10:41:34.646Z,29.96
2022-12-04T10:44:05.354Z,29.79
2022-12-04T10:46:43.155Z,29.89
2022-12-04T10:49:23.466Z,30.25
2022-12-04T10:51:54.163Z,29.82
2022-12-04T10:54:32.640Z,30.14
2022-12-04T10:57:05.814Z,30.15
2022-12-04T10:59:37.458Z,29.96
2022-12-04T11:02:24.131Z,30.24
2022-12-04T11:04:58.996Z,30.15
2022-12-04T11:07:32.455Z,30.13
2022-12-04T11:10:07.245Z,30.25
2022-12-04T11:12:37.069Z,30.72
2022-12-04T11:15:28.268Z,30.56
2022-12-04T11:18:10.942Z,30.53
2022-12-04T11:20:46.715Z,30.55
2022-12-04T11:23:19.524Z,30.95
2022-12-04T11:25:53.664Z,30.67
2022-12-04T11:28:41.609Z,30.66
2022-12-04T11:31:21.057Z,30.90
2022-12-04T11:34:00.013Z,30.75
2022-12-04T11:36:34.982Z,31.08
2022-12-04T11:39:19.619Z,31.08
2022-12-04T11:41:50.243Z,30.99
2022-12-04T11:44:29.214Z,31.18
2022-12-04T11:47:04.520Z,30.96
2022-12-04T11:49:42.269Z,31.07
2022-12-04T11:52:32.822Z,31.42
2022-12-04T11:55:11.281Z,31.21
2022-12-04T11:57:53.954Z,31.38
2022-12-04T12:00:27.929Z,31.33
2022-12-04T12:03:20.378Z,31.44
2022-12-04T12:06:32.223Z,31.41
2022-12-04T12:09:22.501Z,31.45
2022-12-04T12:11:59.931Z,31.64
2022-12-04T12:14:43.110Z,31.39
2022-12-04T12:17:28.270Z,31.51
2022-12-04T12:20:16.194Z,31.59
2022-12-04T12:23:14.393Z,31.56
2022-12-04T12:25:58.945Z,31.67
2022-12-04T12:29:02.836Z,31.70
2022-12-04T12:31:58.998Z,31.44
2022-12-04T12:34:39.828Z,31.55
2022-12-04T12:37:24.616Z,31.57
2022-12-04T12:40:05.736Z,31.84
2022-12-04T12:42:47.450Z,31.58
2022-12-04T12:45:30.059Z,31.78
2022-12-04T12:48:11.588Z,31.77
2022-12-04T12:51:08.922Z,31.55
2022-12-04T12:53:48.262Z,31.99
2022-12-04T12:56:28.642Z,32.01
2022-12-04T12:59:05.849Z,31.84
2022-12-04T13:01:48.878Z,31.79
2022-12-04T13:04:31.888Z,32.27
2022-12-04T13:07:23.634Z,32.02
2022-12-04T13:10:05.045Z,32.21
2022-12-04T13:12:47.357Z,32.23
2022-12-04T13:15:22.130Z,32.11
2022-12-04T13:17:58.989Z,32.38
2022-12-04T13:20:36.552Z,32.45
2022-12-04T13:23:28.563Z,32.40
2022-12-04T13:26:10.218Z,32.46
2022-12-04T13:28:57.283Z,32.65
2022-12-04T13:31:40.831Z,32.51
2022-12-04T13:34:46.648Z,32.55
2022-12-04T13:37:50.609Z,32.68
2022-12-04T13:40:36.198Z,32.75
2022-12-04T13:43:30.466Z,32.70
2022-12-04T13:46:07.305Z,32.92
2022-12-04T13:48:42.461Z,33.13
2022-12-04T13:51:40.998Z,32.92
2022-12-04T13:54:31.448Z,33.12
2022-12-04T13:57:24.275Z,32.83
2022-12-04T14:00:07.805Z,33.00
2022-12-04T14:02:40.643Z,33.23
2022-12-04T14:05:14.573Z,33.32
2022-12-04T14:08:04.264Z,33.26
2022-12-04T14:10:42.089Z,33.41
2022-12-04T14:13:23.550Z,33.45
2022-12-04T14:16:08.259Z,33.37
2022-12-04T14:18:42.116Z,33.40
2022-12-04T14:21:13.153Z,33.67
2022-12-04T14:23:45.469Z,33.56
2022-12-04T14:26:55.974Z,33.46
2022-12-04T14:29:50.535Z,33.79
2022-12-04T14:32:26.756Z,33.73
2022-12-04T14:35:00.859Z,33.76
2022-12-04T14:37:38.570Z,33.81
2022-12-04T14:40:22.552Z,33.76
2022-12-04T14:42:55.016Z,34.00
2022-12-04T14:45:40.085Z,34.06
2022-12-04T14:48:35.477Z,33.83
2022-12-04T14:51:20.927Z,34.18
2022-12-04T14:54:02.326Z,34.28
2022-12-04T14:57:00.617Z,34.03
2022-12-04T14:59:44.708Z,34.15
2022-12-04T15:02:20.530Z,34.25
2022-12-04T15:04:53.206Z,34.18
2022-12-04T15:07:32.085Z,34.25
2022-12-04T15:10:32.705Z,34.39
2022-12-04T15:13:03.206Z,34.42
2022-12-04T15:15:34.447Z,34.54
2022-12-04T15:18:12.389Z,34.19
2022-12-04T15:20:56.336Z,34.48
2022-12-04T15:23:32.657Z,34.54
2022-12-04T15:26:09.902Z,34.54
2022-12-04T15:28:46.722Z,34.80
2022-12-04T15:31:27.138Z,34.77
2022-12-04T15:34:03.225Z,35.03
2022-12-04T15:36:46.144Z,34.85
2022-12-04T15:39:23.055Z,34.89
2022-12-04T15:41:53.849Z,35.13
2022-12-04T15:44:29.405Z,35.14
2022-12-04T15:47:03.004Z,35.28
2022-12-04T15:49:35.372Z,35.00
2022-12-04T15:52:17.781Z,35.32
2022-12-04T15:54:56.969Z,35.13
2022-12-04T15:57:32.865Z,35.37
2022-12-04T16:00:05.666Z,35.22
2022-12-04T16:02:42.427Z,35.38
2022-12-04T16:05:28.964Z,35.32
2022-12-04T16:08:02.552Z,35.39
2022-12-04T16:10:38.477Z,35.25
2022-12-04T16:13:09.360Z,35.32
2022-12-04T16:15:44.330Z,35.56
2022-12-04T16:18:17.407Z,35.53
2022-12-04T16:20:48.011Z,35.62
2022-12-04T16:23:19.103Z,35.69
2022-12-04T16:25:53.628Z,35.79
2022-12-04T16:28:24.082Z,35.62
2022-12-04T16:30:54.732Z,35.85
2022-12-04T16:33:25.321Z,35.70
2022-12-04T16:35:55.663Z,35.62
2022-12-04T16:38:26.180Z,35.64
2022-12-04T16:40:58.079Z,35.69
2022-12-04T16:43:27.959Z,35.72
2022-12-04T16:46:01.669Z,35.81
2022-12-04T16:48:35.128Z,35.52
2022-12-04T16:51:05.544Z,35.88
2022-12-04T16:53:36.142Z,35.83
2022-12-04T16:56:08.646Z,35.73
2022-12-04T16:58:39.097Z,35.72
2022-12-04T17:01:26.286Z,35.88
2022-12-04T17:03:57.124Z,35.93
2022-12-04T17:06:27.662Z,36.00
2022-12-04T17:08:58.053Z,35.82
2022-12-04T17:11:30.814Z,35.84
2022-12-04T17:14:03.227Z,36.00
2022-12-04T17:16:33.813Z,36.00
2022-12-04T17:19:04.456Z,35.98
2022-12-04T17:21:35.078Z,36.23
2022-12-04T17:24:05.506Z,36.02
2022-12-04T17:26:38.559Z,36.16
2022-12-04T17:29:09.028Z,36.14
2022-12-04T17:31:39.589Z,35.90
2022-12-04T17:34:09.907Z,36.06
2022-12-04T17:36:39.646Z,35.80
2022-12-04T17:39:12.064Z,36.21
2022-12-04T17:41:44.153Z,36.15
2022-12-04T17:44:14.071Z,36.04
2022-12-04T17:46:45.927Z,36.49
2022-12-04T17:49:16.050Z,36.45
2022-12-04T17:51:46.041Z,36.42
2022-12-04T17:54:16.861Z,36.36
2022-12-04T17:56:51.279Z,36.23
2022-12-04T17:59:24.784Z,36.47
2022-12-04T18:01:55.744Z,36.32
2022-12-04T18:04:26.319Z,36.59
2022-12-04T18:06:56.944Z,36.51
2022-12-04T18:09:27.343Z,36.16
2022-12-04T18:12:01.987Z,36.35
2022-12-04T18:14:35.518Z,36.42
2022-12-04T18:17:05.865Z,36.33
2022-12-04T18:19:36.410Z,36.38
2022-12-04T18:22:07.343Z,36.40
2022-12-04T18:24:37.924Z,36.42
2022-12-04T18:27:10.866Z,36.27
2022-12-04T18:29:42.690Z,36.44
2022-12-04T18:32:13.295Z,36.37
2022-12-04T18:34:44.013Z,36.38
2022-12-04T18:37:14.581Z,36.50
2022-12-04T18:39:44.804Z,36.40
2022-12-04T18:42:17.287Z,36.23
2022-12-04T18:44:49.028Z,36.40
2022-12-04T18:47:19.579Z,36.62
2022-12-04T18:49:49.646Z,36.49
2022-12-04T18:52:20.266Z,36.48
2022-12-04T18:54:50.515Z,36.47
2022-12-04T18:57:23.007Z,36.51
2022-12-04T18:59:53.589Z,36.20
2022-12-04T19:02:24.252Z,36.75
2022-12-04T19:04:56.713Z,36.50
2022-12-04T19:07:27.484Z,36.56
2022-12-04T19:10:13.522Z,36.49
2022-12-04T19:12:45.961Z,36.77
2022-12-04T19:15:16.462Z,36.64
2022-12-04T19:17:46.713Z,36.65
2022-12-04T19:20:18.569Z,36.81
2022-12-04T19:22:49.418Z,36.78
2022-12-04T19:25:20.158Z,36.83
2022-12-04T19:27:53.226Z,36.77
2022-12-04T19:30:23.943Z,36.64
2022-12-04T19:32:53.950Z,36.63
2022-12-04T19:35:23.968Z,36.78
2022-12-04T19:37:54.772Z,36.82
2022-12-04T19:40:25.974Z,36.85
2022-12-04T19:43:02.662Z,37.01
2022-12-04T19:45:33.867Z,36.61
2022-12-04T19:48:04.539Z,36.81
2022-12-04T19:50:35.641Z,36.90
2022-12-04T19:53:06.489Z,37.11
2022-12-04T19:55:39.782Z,36.74
2022-12-04T19:58:11.791Z,36.93
2022-12-04T20:00:42.187Z,36.86
2022-12-04T20:03:12.807Z,37.07
2022-12-04T20:05:44.169Z,37.04
2022-12-04T20:08:14.700Z,37.01
2022-12-04T20:10:45.018Z,36.77
2022-12-04T20:13:16.712Z,37.03
2022-12-04T20:15:47.475Z,37.05
2022-12-04T20:18:18.467Z,36.70
2022-12-04T20:21:01.088Z,36.71
2022-12-04T20:23:31.891Z,37.13
2022-12-04T20:26:08.140Z,36.95
2022-12-04T20:28:40.412Z,36.93
2022-12-04T20:31:23.587Z,37.08
2022-12-04T20:33:57.127Z,37.09
2022-12-04T20:36:30.170Z,37.36
2022-12-04T20:39:01.135Z,36.89
2022-12-04T20:41:33.722Z,37.20
2022-12-04T20:44:09.379Z,37.05
2022-12-04T20:46:43.302Z,37.17
2022-12-04T20:49:21.737Z,37.33
2022-12-04T20:51:54.219Z,37.39
2022-12-04T20:54:25.212Z,37.31
2022-12-04T20:56:56.710Z,37.00
2022-12-04T20:59:28.396Z,37.31
2022-12-04T21:01:59.844Z,37.33
2022-12-04T21:04:30.518Z,37.18
2022-12-04T21:07:01.350Z,37.23
2022-12-04T21:09:31.347Z,37.32
2022-12-04T21:12:02.597Z,37.08
2022-12-04T21:15:06.094Z,37.34
2022-12-04T21:17:39.352Z,37.38
2022-12-04T21:20:12.087Z,37.36
2022-12-04T21:22:42.904Z,37.16
2022-12-04T21:25:13.670Z,37.37
2022-12-04T21:27:44.883Z,37.74
2022-12-04T21:30:18.287Z,37.33
2022-12-04T21:32:48.291Z,37.48
2022-12-04T21:35:18.883Z,37.51
2022-12-04T21:37:49.301Z,37.52
2022-12-04T21:40:19.254Z,37.45
2022-12-04T21:42:49.773Z,37.33
2022-12-04T21:45:22.376Z,37.61
2022-12-04T21:47:53.383Z,37.43
2022-12-04T21:50:24.034Z,37.47
2022-12-04T21:52:56.592Z,37.41
2022-12-04T21:55:27.189Z,37.36
2022-12-04T21:57:57.725Z,37.48
2022-12-04T22:00:30.145Z,37.55
2022-12-04T22:03:00.867Z,37.57
2022-12-04T22:05:33.763Z,37.91
2022-12-04T22:08:04.381Z,37.65
2022-12-04T22:10:34.663Z,37.86
2022-12-04T22:13:04.355Z,37.71
2022-12-04T22:15:41.347Z,37.98
2022-12-04T22:18:12.878Z,37.63
2022-12-04T22:20:45.545Z,38.06
2022-12-04T22:23:16.064Z,38.05
2022-12-04T22:25:50.098Z,37.83
2022-12-04T22:28:20.655Z,37.97
2022-12-04T22:30:53.346Z,37.77
2022-12-04T22:33:23.381Z,38.05
2022-12-04T22:35:58.336Z,38.12
2022-12-04T22:38:28.798Z,37.83
2022-12-04T22:41:02.949Z,38.16
2022-12-04T22:43:40.511Z,37.87
2022-12-04T22:46:15.455Z,38.14
2022-12-04T22:48:46.692Z,37.84
2022-12-04T22:51:20.298Z,37.99
2022-12-04T22:53:53.487Z,37.92
2022-12-04T22:56:26.964Z,37.94
2022-12-04T22:58:58.523Z,38.00
2022-12-04T23:01:33.889Z,38.08
2022-12-04T23:04:06.796Z,38.27
2022-12-04T23:06:37.846Z,38.36
2022-12-04T23:09:13.627Z,38.41
2022-12-04T23:11:44.948Z,37.99
2022-12-04T23:14:17.330Z,38.22
2022-12-04T23:16:50.863Z,37.93
2022-12-04T23:19:22.558Z,37.85
2022-12-04T23:21:56.951Z,38.10
2022-12-04T23:24:28.598Z,38.14
2022-12-04T23:26:59.075Z,38.05
2022-12-04T23:29:52.117Z,37.95
2022-12-04T23:32:21.565Z,38.25
2022-12-04T23:34:53.503Z,38.03
2022-12-04T23:37:24.139Z,38.35
2022-12-04T23:39:54.373Z,38.30
2022-12-04T23:42:24.891Z,38.21
2022-12-04T23:44:55.455Z,38.45
2022-12-04T23:47:27.574Z,38.19
2022-12-04T23:49:57.836Z,38.43
2022-12-04T23:52:28.118Z,38.65
2022-12-04T23:54:59.041Z,38.57
2022-12-04T23:57:31.962Z,38.53
